Flight Track Log - Related Links

Times and Time Zones

All times are in EST time to prevent confusion due to time zone crossing. See the OPT332 flight status page for this flight to view local times or setup timezone preferences in your user account.

Time Position Orientation Groundspeed Altitude Reporting Facility
EST Latitude Longitude Course Direction KTS MPH feet Rate Location/Type
Mon 12:53:10 PM 35.4392 -119.1275 230° Southwest 266 306 7,700  Level Los Angeles Center
Mon 12:54:12 PM 35.3622 -119.0700 149° Southeast 274 315 12,000 3,696 Climbing Los Angeles Center
Mon 12:55:15 PM 35.2908 -119.0181 149° Southeast 291 335 15,400 3,072 Climbing Los Angeles Center
Mon 12:56:17 PM 35.2144 -118.9617 149° Southeast 311 358 18,400 2,661 Climbing Los Angeles Center
Mon 12:57:00 PM 34.9419 -118.6231 144° Southeast  Level Estimated
Mon 12:57:19 PM 35.1306 -118.9014 150° Southeast 339 390 20,900  Level Los Angeles Center
Mon 12:58:21 PM 35.0225 -118.8231 149° Southeast 370 426 24,000 2,476 Climbing Los Angeles Center
Mon 12:59:25 PM 34.9308 -118.7567 149° Southeast 380 437 26,100 2,190 Climbing Los Angeles Center
Mon 01:00:27 PM 34.8244 -118.6797 149° Southeast 404 465 28,600 2,516 Climbing Los Angeles Center
Mon 01:01:29 PM 34.7275 -118.6092 149° Southeast 407 468 31,300 2,274 Climbing Los Angeles Center
Mon 01:02:31 PM 34.6308 -118.5428 151° Southeast 401 461 33,300 1,323 Climbing Los Angeles Center
Mon 01:07:59 PM 34.0451 -118.2053 151° Southeast 437 503 39,900 1,150 Climbing FlightAware ADS-B
Mon 01:08:31 PM 33.9870 -118.1718 154° Southeast 437 503 40,200 1,164 Climbing FlightAware ADS-B
Mon 01:10:44 PM 33.7599 -118.0354 153° Southeast 420 483 43,100 1,020 Climbing FlightAware ADS-B
Mon 01:11:51 PM 33.6611 -117.9517 153° Southeast 423 487 43,600 698 Climbing Los Angeles Center
Mon 01:12:53 PM 33.5667 -117.8744 146° Southeast 412 474 44,600 677 Climbing Los Angeles Center
Mon 01:13:55 PM 33.4561 -117.7819 145° Southeast 403 464 45,000 194 Climbing Los Angeles Center
Mon 01:14:57 PM 33.3606 -117.7042 146° Southeast 413 475 45,000  Level Los Angeles Center
Mon 01:15:59 PM 33.2644 -117.6247 145° Southeast 418 481 45,000  Level Los Angeles Center
Mon 01:17:01 PM 33.1689 -117.5439 145° Southeast 420 483 45,000  Level Los Angeles Center
Mon 01:18:04 PM 33.0717 -117.4636 145° Southeast 422 486 45,000  Level Los Angeles Center
Mon 01:19:06 PM 32.9747 -117.3831 145° Southeast 425 489 45,000  Level Los Angeles Center
Mon 01:20:08 PM 32.8572 -117.2878 146° Southeast 426 490 45,000  Level Los Angeles Center
Mon 01:21:10 PM 32.7575 -117.2011 144° Southeast 428 493 45,000  Level Los Angeles Center
Mon 01:22:12 PM 32.6722 -117.1006 135° Southeast 433 498 45,000  Level Los Angeles Center
Mon 01:23:14 PM 32.5853 -117.0033 137° Southeast 433 498 45,000  Level Los Angeles Center
Mon 01:25:00 PM 32.4312 -116.9020 158° South  Level FlightAware Approximate
Mon 01:32:00 PM 31.7732 -116.5945 155° Southeast  Level FlightAware Approximate
Mon 01:33:00 PM 31.6816 -116.5443 155° Southeast  Level FlightAware Approximate
Mon 01:34:00 PM 31.5899 -116.4943 155° Southeast  Level FlightAware Approximate
Mon 01:35:00 PM 31.4982 -116.4443 155° Southeast  Level FlightAware Approximate
Mon 01:36:00 PM 31.4063 -116.3949 157° South  Level FlightAware Approximate
Mon 01:37:00 PM 31.3132 -116.3487 157° South  Level FlightAware Approximate
Mon 01:38:00 PM 31.2201 -116.3027 157° South  Level FlightAware Approximate
Mon 01:39:00 PM 31.1269 -116.2568 157° South  Level FlightAware Approximate
Mon 01:40:00 PM 31.0338 -116.2109 157° South  Level FlightAware Approximate
Mon 01:41:00 PM 30.9406 -116.1651 157° South  Level FlightAware Approximate
Mon 01:42:00 PM 30.8474 -116.1195 157° South  Level FlightAware Approximate
Mon 01:43:00 PM 30.7542 -116.0739 157° South  Level FlightAware Approximate
Mon 01:44:00 PM 30.6610 -116.0284 157° South  Level FlightAware Approximate
Mon 01:45:00 PM 30.5678 -115.9829 157° South  Level FlightAware Approximate
Mon 01:46:00 PM 30.4773 -115.9317 145° Southeast  Level FlightAware Approximate
Mon 01:47:00 PM 30.3943 -115.8648 145° Southeast  Level FlightAware Approximate
Mon 01:48:00 PM 30.3112 -115.7981 145° Southeast  Level FlightAware Approximate
Mon 01:49:00 PM 30.2281 -115.7314 145° Southeast  Level FlightAware Approximate
Mon 01:50:00 PM 30.1450 -115.6649 145° Southeast  Level FlightAware Approximate
Mon 01:51:00 PM 30.0618 -115.5985 145° Southeast  Level FlightAware Approximate
Mon 01:52:00 PM 29.9786 -115.5322 145° Southeast  Level FlightAware Approximate
Mon 01:53:00 PM 29.8954 -115.4660 145° Southeast  Level FlightAware Approximate
Mon 01:54:00 PM 29.8121 -115.3999 145° Southeast  Level FlightAware Approximate
Mon 01:55:00 PM 29.7288 -115.3339 145° Southeast  Level FlightAware Approximate
Mon 01:56:00 PM 29.6454 -115.2680 146° Southeast  Level FlightAware Approximate
Mon 01:57:00 PM 29.5621 -115.2022 146° Southeast  Level FlightAware Approximate
Mon 01:58:00 PM 29.4787 -115.1366 146° Southeast  Level FlightAware Approximate
Mon 01:59:00 PM 29.3952 -115.0710 146° Southeast  Level FlightAware Approximate
Mon 02:00:00 PM 29.3118 -115.0056 146° Southeast  Level FlightAware Approximate
Mon 02:01:00 PM 29.2284 -114.9400 145° Southeast  Level FlightAware Approximate
Mon 02:02:00 PM 29.1452 -114.8743 145° Southeast  Level FlightAware Approximate
Mon 02:03:00 PM 29.0618 -114.8088 145° Southeast  Level FlightAware Approximate
Mon 02:04:00 PM 28.9785 -114.7434 146° Southeast  Level FlightAware Approximate
Mon 02:05:00 PM 28.8951 -114.6780 146° Southeast  Level FlightAware Approximate
Mon 02:06:00 PM 28.8117 -114.6129 146° Southeast  Level FlightAware Approximate
Mon 02:07:00 PM 28.7274 -114.5492 146° Southeast  Level FlightAware Approximate
Mon 02:08:00 PM 28.6431 -114.4856 146° Southeast  Level FlightAware Approximate
Mon 02:09:00 PM 28.5588 -114.4221 147° Southeast  Level FlightAware Approximate
Mon 02:10:00 PM 28.4744 -114.3586 147° Southeast  Level FlightAware Approximate
Mon 02:11:00 PM 28.3900 -114.2953 147° Southeast  Level FlightAware Approximate
Mon 02:12:00 PM 28.3056 -114.2321 147° Southeast  Level FlightAware Approximate
Mon 02:13:00 PM 28.2212 -114.1690 147° Southeast  Level FlightAware Approximate
Mon 02:14:00 PM 28.1367 -114.1060 147° Southeast  Level FlightAware Approximate
Mon 02:15:00 PM 28.0522 -114.0431 147° Southeast  Level FlightAware Approximate
Mon 02:16:00 PM 27.9925 -113.9563 114° Southeast  Level FlightAware Approximate
Mon 02:17:00 PM 27.9506 -113.8521 114° Southeast  Level FlightAware Approximate
Mon 02:18:00 PM 27.9087 -113.7480 114° Southeast  Level FlightAware Approximate
Mon 02:19:00 PM 27.8666 -113.6439 115° Southeast  Level FlightAware Approximate
Mon 02:20:00 PM 27.8246 -113.5400 115° Southeast  Level FlightAware Approximate
Mon 02:21:00 PM 27.7824 -113.4361 115° Southeast  Level FlightAware Approximate
Mon 02:22:00 PM 27.7401 -113.3323 115° Southeast  Level FlightAware Approximate
Mon 02:23:00 PM 27.6978 -113.2286 115° Southeast  Level FlightAware Approximate
Mon 02:24:00 PM 27.6554 -113.1250 115° Southeast  Level FlightAware Approximate
Mon 02:25:00 PM 27.6129 -113.0214 115° Southeast  Level FlightAware Approximate
Mon 02:26:00 PM 27.5704 -112.9180 115° Southeast  Level FlightAware Approximate
Mon 02:27:00 PM 27.5278 -112.8146 115° Southeast  Level FlightAware Approximate
Mon 02:28:00 PM 27.4851 -112.7113 115° Southeast  Level FlightAware Approximate
Mon 02:29:00 PM 27.4423 -112.6080 115° Southeast  Level FlightAware Approximate
Mon 02:30:00 PM 27.3994 -112.5049 115° Southeast  Level FlightAware Approximate
Mon 02:31:00 PM 27.3565 -112.4018 115° Southeast  Level FlightAware Approximate
Mon 02:32:00 PM 27.3134 -112.2988 115° Southeast  Level FlightAware Approximate
Mon 02:33:00 PM 27.2402 -112.2268 149° Southeast  Level FlightAware Approximate
Mon 02:34:00 PM 27.1532 -112.1688 149° Southeast  Level FlightAware Approximate
Mon 02:35:00 PM 27.0678 -112.1081 148° Southeast  Level FlightAware Approximate
Mon 02:36:00 PM 26.9824 -112.0474 148° Southeast  Level FlightAware Approximate
Mon 02:37:00 PM 26.8970 -111.9867 148° Southeast  Level FlightAware Approximate
Mon 02:38:00 PM 26.8115 -111.9262 148° Southeast  Level FlightAware Approximate
Mon 02:39:00 PM 26.7260 -111.8657 148° Southeast  Level FlightAware Approximate
Mon 02:40:00 PM 26.6405 -111.8054 148° Southeast  Level FlightAware Approximate
Mon 02:41:00 PM 26.5550 -111.7451 148° Southeast  Level FlightAware Approximate
Mon 02:42:00 PM 26.4695 -111.6849 148° Southeast  Level FlightAware Approximate
Mon 02:43:00 PM 26.3839 -111.6248 148° Southeast  Level FlightAware Approximate
Mon 02:44:00 PM 26.2983 -111.5648 148° Southeast  Level FlightAware Approximate
Mon 02:45:00 PM 26.2126 -111.5049 148° Southeast  Level FlightAware Approximate
Mon 02:46:00 PM 26.1270 -111.4450 148° Southeast  Level FlightAware Approximate
Mon 02:47:00 PM 26.0413 -111.3853 148° Southeast  Level FlightAware Approximate
Mon 02:48:00 PM 25.9582 -111.3223 131° Southeast  Level FlightAware Approximate
Mon 02:49:00 PM 25.8921 -111.2373 131° Southeast  Level FlightAware Approximate
Mon 02:50:00 PM 25.8260 -111.1522 131° Southeast  Level FlightAware Approximate
Mon 02:51:00 PM 25.7598 -111.0673 131° Southeast  Level FlightAware Approximate
Mon 02:52:00 PM 25.6962 -110.9802 128° Southeast  Level FlightAware Approximate
Mon 02:53:00 PM 25.6342 -110.8916 128° Southeast  Level FlightAware Approximate
Mon 02:54:00 PM 25.5693 -110.8057 131° Southeast  Level FlightAware Approximate
Mon 02:55:00 PM 25.5033 -110.7209 131° Southeast  Level FlightAware Approximate
Mon 02:56:00 PM 25.4481 -110.6311 133° Southeast  Level FlightAware Approximate
Mon 02:57:00 PM 25.3796 -110.5488 133° Southeast  Level FlightAware Approximate
Mon 02:58:00 PM 25.3143 -110.4634 130° Southeast  Level FlightAware Approximate
Mon 02:59:00 PM 25.2498 -110.3773 130° Southeast  Level FlightAware Approximate
Mon 03:00:00 PM 25.1852 -110.2913 130° Southeast  Level FlightAware Approximate
Mon 03:01:00 PM 25.1208 -110.2053 130° Southeast  Level FlightAware Approximate
Mon 03:02:00 PM 25.0563 -110.1193 130° Southeast  Level FlightAware Approximate
Mon 03:03:00 PM 24.9918 -110.0333 130° Southeast  Level FlightAware Approximate
Mon 03:04:00 PM 24.9273 -109.9475 130° Southeast  Level FlightAware Approximate
Mon 03:05:00 PM 24.8627 -109.8617 131° Southeast  Level FlightAware Approximate
Mon 03:06:00 PM 24.7938 -109.7828 175° South  Level FlightAware Approximate
Mon 03:07:00 PM 24.6931 -109.7736 175° South  Level FlightAware Approximate
Mon 03:08:00 PM 24.5922 -109.7667 180° South  Level FlightAware Approximate
Mon 03:09:00 PM 24.4911 -109.7667 180° South  Level FlightAware Approximate
Mon 03:10:00 PM 24.3900 -109.7667 180° South  Level FlightAware Approximate
Mon 03:11:00 PM 24.2893 -109.7591 173° South  Level FlightAware Approximate
Mon 03:12:00 PM 24.1887 -109.7500 180° South  Level FlightAware Approximate
Mon 03:13:00 PM 24.0876 -109.7500 180° South  Level FlightAware Approximate
Mon 03:14:00 PM 23.9865 -109.7500 180° South  Level FlightAware Approximate
Mon 03:15:00 PM 23.8856 -109.7452 175° South  Level FlightAware Approximate
Mon 03:16:00 PM 23.7849 -109.7352 175° South  Level FlightAware Approximate
Mon 03:17:00 PM 23.6839 -109.7333 180° South  Level FlightAware Approximate
Mon 03:18:00 PM 23.5828 -109.7333 180° South  Level FlightAware Approximate
Mon 03:19:00 PM 23.4820 -109.7265 175° South  Level FlightAware Approximate
Mon 03:20:00 PM 23.3813 -109.7167 180° South  Level FlightAware Approximate
Mon 03:21:00 PM 23.2802 -109.7167 180° South  Level FlightAware Approximate
Mon 03:22:00 PM 23.1791 -109.7167 180° South  Level FlightAware Approximate
Mon 03:23:00 PM 23.1518 -109.7210 180° South  Level Estimated
Mon 03:24:00 PM 23.1518 -109.7210 180° South  Level Estimated
Mon 03:25:00 PM 23.1518 -109.7210 180° South  Level Estimated
Mon 03:26:00 PM 23.1518 -109.7210 180° South  Level Estimated
Mon 03:27:00 PM 23.1518 -109.7210 180° South  Level Estimated
Mon 03:28:00 PM 23.1518 -109.7210 180° South  Level Estimated
Mon 03:29:00 PM 23.1518 -109.7210 180° South  Level Estimated
Mon 03:30:00 PM 23.1518 -109.7210 180° South  Level Estimated
Mon 03:31:00 PM 23.1518 -109.7210 180° South  Level Estimated
Mon 03:32:00 PM 23.1518 -109.7210 180° South  Level Estimated
Mon 03:33:00 PM 23.1518 -109.7210 180° South  Level Estimated
Mon 03:34:00 PM 23.1518 -109.7210 180° South  Level Estimated
Mon 03:35:00 PM 23.1518 -109.7210 180° South  Level Estimated
Mon 03:36:00 PM 23.1518 -109.7210 180° South  Level Estimated
Mon 03:37:00 PM 23.1518 -109.7210 180° South  Level Estimated
Mon 03:38:00 PM 23.1518 -109.7210 180° South  Level Estimated
Mon 03:39:00 PM 23.1518 -109.7210 180° South  Level Estimated

Login

Don't have an account? Register now (free) for customized features, flight alerts, and more!